Terminal Aerodrome Forecast
Issued by NWS Grand Junction, CO

Home | Current Version | Previous Version | Text Only | Print | Product List | Glossary On
Versions: 1 2 3 4 5 6 7 8 9 10 11 12 13 14 15 16 17 18 19 20 21 22 23 24 25
000
FTUS45 KGJT 270536 AAD
TAFGJT
TAF AMD
KGJT 270536Z 2706/2806 10010KT P6SM FEW250
     FM271000 12007KT P6SM SKC
     FM271800 30008KT P6SM SKC
     FM280300 05004KT P6SM SKC=

USA.gov is the U.S. government's official web portal to all federal, state and local government web resources and services.